Time;durP1;ratioP1;P1;durP2;ratioP2;P2;SDS_P1;SDS_P2;PMS_P1;PMS_P2;Temp;Humidity;BMP_temperature;BMP_pressure;BME280_temperature;BME280_humidity;BME280_pressure;Samples;Min_cycle;Max_cycle;Signal;HPM_P1;HPM_P2
2021/12/31 00:01:05;;;;;;;55.00;9.48;;;;;;;-145.67;100.00;66521.78;4999590;28;20034;-73
2021/12/31 00:03:31;;;;;;;54.00;8.20;;;;;;;-145.67;100.00;66521.78;4994872;28;20664;-71
2021/12/31 00:05:56;;;;;;;45.53;7.30;;;;;;;-145.67;100.00;66521.78;4994632;28;20026;-73
2021/12/31 00:08:22;;;;;;;41.38;7.68;;;;;;;-145.67;100.00;66521.78;5001736;28;20037;-73
2021/12/31 00:10:48;;;;;;;51.50;9.05;;;;;;;-145.67;100.00;66521.78;5004993;28;20025;-74
2021/12/31 00:13:13;;;;;;;60.58;9.32;;;;;;;-145.67;100.00;66521.78;4994967;28;20037;-74
2021/12/31 00:15:39;;;;;;;46.03;7.53;;;;;;;-145.67;100.00;66521.78;4994925;28;20064;-74
2021/12/31 00:18:04;;;;;;;39.20;7.18;;;;;;;-145.67;100.00;66521.78;4994154;28;20470;-74
2021/12/31 00:20:32;;;;;;;47.58;8.75;;;;;;;-145.67;100.00;66521.78;4994824;28;20021;-74
2021/12/31 00:25:26;;;;;;;55.13;9.60;;;;;;;-145.67;100.00;66521.78;4994872;28;20029;-73
2021/12/31 00:27:54;;;;;;;60.88;9.32;;;;;;;-145.67;100.00;66521.78;4998087;28;20065;-74
2021/12/31 00:30:20;;;;;;;61.22;9.30;;;;;;;-145.67;100.00;66521.78;4998592;28;20029;-73
2021/12/31 00:32:46;;;;;;;61.25;9.13;;;;;;;-145.67;100.00;66521.78;4992996;28;20037;-74
2021/12/31 00:35:12;;;;;;;54.30;10.38;;;;;;;-145.67;100.00;66521.78;5008787;28;20064;-73
2021/12/31 00:37:38;;;;;;;67.95;9.88;;;;;;;-145.67;100.00;66521.78;4994761;28;20042;-74
2021/12/31 00:40:07;;;;;;;76.32;10.30;;;;;;;-145.67;100.00;66521.78;4994171;28;20083;-73
2021/12/31 00:42:33;;;;;;;56.95;9.38;;;;;;;-145.67;100.00;66521.78;4995160;28;20058;-73
2021/12/31 00:44:58;;;;;;;65.47;10.52;;;;;;;-145.67;100.00;66521.78;4993820;28;20199;-74
2021/12/31 00:47:26;;;;;;;66.18;10.13;;;;;;;-145.67;100.00;66521.78;5004642;28;20034;-74
2021/12/31 00:49:54;;;;;;;61.70;9.18;;;;;;;-145.67;100.00;66521.78;4993871;28;22184;-74
2021/12/31 00:52:20;;;;;;;62.08;9.70;;;;;;;-145.67;100.00;66521.78;4993556;28;20069;-74
2021/12/31 00:54:45;;;;;;;64.15;9.95;;;;;;;-145.67;100.00;66521.78;4997832;28;20811;-74
2021/12/31 00:57:11;;;;;;;58.75;9.95;;;;;;;-145.67;100.00;66521.78;4992922;28;20048;-74
2021/12/31 00:59:37;;;;;;;59.42;10.02;;;;;;;-145.67;100.00;66521.78;4994061;28;20084;-73
2021/12/31 01:02:05;;;;;;;48.20;8.73;;;;;;;-145.67;100.00;66521.78;5008912;28;20707;-73
2021/12/31 01:04:31;;;;;;;58.45;9.55;;;;;;;-145.67;100.00;66521.78;4998296;28;20041;-73
2021/12/31 01:06:58;;;;;;;66.55;9.65;;;;;;;-145.67;100.00;66521.78;5000128;28;20193;-74
2021/12/31 01:09:24;;;;;;;53.83;9.68;;;;;;;-145.67;100.00;66521.78;5009416;28;20061;-74
2021/12/31 01:11:50;;;;;;;50.40;8.80;;;;;;;-145.67;100.00;66521.78;4994224;28;20397;-73
2021/12/31 01:14:30;;;;;;;53.05;9.75;;;;;;;-145.67;100.00;66521.78;4994500;28;20115;-74
2021/12/31 01:17:01;;;;;;;47.67;8.30;;;;;;;-145.67;100.00;66521.78;4994215;28;20118;-73
2021/12/31 01:21:54;;;;;;;52.28;9.30;;;;;;;-145.67;100.00;66521.78;4995694;28;20413;-74
2021/12/31 01:24:22;;;;;;;53.25;9.20;;;;;;;-145.67;100.00;66521.78;4997671;28;20122;-74
2021/12/31 01:26:48;;;;;;;53.90;9.23;;;;;;;-145.67;100.00;66521.78;4997892;28;20056;-73
2021/12/31 01:29:13;;;;;;;51.05;8.55;;;;;;;-145.67;100.00;66521.78;4997544;28;20025;-73
2021/12/31 01:31:39;;;;;;;42.58;7.18;;;;;;;-145.67;100.00;66521.78;4997246;28;20041;-73
2021/12/31 01:34:05;;;;;;;45.42;7.80;;;;;;;-145.67;100.00;66521.78;5003570;28;20057;-74
2021/12/31 01:36:30;;;;;;;47.95;8.30;;;;;;;-145.67;100.00;66521.78;4997328;28;20121;-74
2021/12/31 01:38:56;;;;;;;44.55;7.15;;;;;;;-145.67;100.00;66521.78;5003168;28;20034;-74
2021/12/31 01:41:21;;;;;;;53.47;9.50;;;;;;;-145.67;100.00;66521.78;4997120;28;20025;-73
2021/12/31 01:43:47;;;;;;;47.90;7.95;;;;;;;-145.67;100.00;66521.78;5000649;28;20170;-73
2021/12/31 01:46:13;;;;;;;49.55;7.68;;;;;;;-145.67;100.00;66521.78;4995212;28;20029;-73
2021/12/31 01:49:00;;;;;;;58.60;9.23;;;;;;;-145.67;100.00;66521.78;5001203;28;20732;-74
2021/12/31 01:51:26;;;;;;;48.65;8.20;;;;;;;-145.67;100.00;66521.78;4998572;28;20045;-73
2021/12/31 01:53:55;;;;;;;42.60;7.97;;;;;;;-145.67;100.00;66521.78;5010995;28;20100;-73
2021/12/31 01:56:25;;;;;;;48.45;6.72;;;;;;;-145.67;100.00;66521.78;4997280;28;20037;-74
2021/12/31 01:58:55;;;;;;;43.38;7.00;;;;;;;-145.67;100.00;66521.78;5011344;28;20103;-74
2021/12/31 02:01:24;;;;;;;46.72;7.97;;;;;;;-145.67;100.00;66521.78;4996741;28;20041;-73
2021/12/31 02:03:51;;;;;;;44.60;7.22;;;;;;;-145.67;100.00;66521.78;4995809;28;20033;-74
2021/12/31 02:06:17;;;;;;;46.35;7.85;;;;;;;-145.67;100.00;66521.78;5002272;28;20042;-73
2021/12/31 02:08:42;;;;;;;47.63;7.80;;;;;;;-145.67;100.00;66521.78;4996532;28;20033;-73
2021/12/31 02:11:08;;;;;;;41.47;7.90;;;;;;;-145.67;100.00;66521.78;4996793;28;20461;-73
2021/12/31 02:13:35;;;;;;;53.53;8.90;;;;;;;-145.67;100.00;66521.78;4995546;28;20033;-73
2021/12/31 02:16:01;;;;;;;41.80;7.68;;;;;;;-145.67;100.00;66521.78;5011653;28;20541;-74
2021/12/31 02:18:30;;;;;;;39.83;7.10;;;;;;;-145.67;100.00;66521.78;4994988;28;20037;-74
2021/12/31 02:20:55;;;;;;;32.33;6.53;;;;;;;-145.67;100.00;66521.78;4996241;28;20154;-74
2021/12/31 02:23:25;;;;;;;37.47;6.32;;;;;;;-145.67;100.00;66521.78;4995088;28;20042;-74
2021/12/31 02:25:51;;;;;;;36.40;6.05;;;;;;;-145.67;100.00;66521.78;5011752;28;21056;-74
2021/12/31 02:28:18;;;;;;;29.35;5.75;;;;;;;-145.67;100.00;66521.78;5011109;28;20458;-73
2021/12/31 02:30:44;;;;;;;33.00;6.07;;;;;;;-145.67;100.00;66521.78;4996356;28;20529;-74
2021/12/31 02:33:09;;;;;;;37.42;6.55;;;;;;;-145.67;100.00;66521.78;5009275;28;20262;-74
2021/12/31 02:35:35;;;;;;;42.10;7.95;;;;;;;-145.67;100.00;66521.78;4995891;28;20438;-73
2021/12/31 02:38:02;;;;;;;40.63;7.00;;;;;;;-145.67;100.00;66521.78;4989475;28;20041;-73
2021/12/31 02:40:28;;;;;;;31.15;6.38;;;;;;;-145.67;100.00;66521.78;4987625;28;20042;-74
2021/12/31 02:42:55;;;;;;;38.42;7.47;;;;;;;-145.67;100.00;66521.78;4996134;28;20034;-73
2021/12/31 02:45:28;;;;;;;32.17;6.30;;;;;;;-145.67;100.00;66521.78;4996218;28;20037;-73
2021/12/31 02:47:54;;;;;;;35.13;6.90;;;;;;;-145.67;100.00;66521.78;4994836;28;20045;-73
2021/12/31 02:50:20;;;;;;;38.40;6.50;;;;;;;-145.67;100.00;66521.78;5002449;28;20033;-73
2021/12/31 02:52:47;;;;;;;36.83;6.70;;;;;;;-145.67;100.00;66521.78;5005987;28;20065;-74
2021/12/31 02:55:12;;;;;;;32.25;6.65;;;;;;;-145.67;100.00;66521.78;5010657;28;20037;-74
2021/12/31 02:57:43;;;;;;;25.73;5.72;;;;;;;-145.67;100.00;66521.78;5001567;28;20481;-73
2021/12/31 03:00:11;;;;;;;26.45;5.80;;;;;;;-145.67;100.00;66521.78;5010371;28;20210;-73
2021/12/31 03:02:37;;;;;;;25.52;5.90;;;;;;;-145.67;100.00;66521.78;4989269;28;20038;-74
2021/12/31 03:05:03;;;;;;;26.83;6.68;;;;;;;-145.67;100.00;66521.78;4999335;28;20651;-71
2021/12/31 03:07:29;;;;;;;20.88;5.97;;;;;;;-145.67;100.00;66521.78;4995814;28;20041;-71
2021/12/31 03:09:56;;;;;;;23.27;5.28;;;;;;;-145.67;100.00;66521.78;5010730;28;20125;-71
2021/12/31 03:12:22;;;;;;;29.25;6.63;;;;;;;-145.67;100.00;66521.78;5011146;28;20041;-71
2021/12/31 03:14:51;;;;;;;23.23;6.20;;;;;;;-145.67;100.00;66521.78;4995575;28;20030;-71
2021/12/31 03:17:21;;;;;;;28.45;5.72;;;;;;;-145.67;100.00;66521.78;5010314;28;20045;-71
2021/12/31 03:19:46;;;;;;;35.10;7.00;;;;;;;-145.67;100.00;66521.78;4995773;28;20823;-71
2021/12/31 03:22:12;;;;;;;32.35;7.05;;;;;;;-145.67;100.00;66521.78;4994602;28;20037;-72
2021/12/31 03:24:38;;;;;;;28.23;5.95;;;;;;;-145.67;100.00;66521.78;5010270;28;20033;-70
2021/12/31 03:27:03;;;;;;;34.33;7.05;;;;;;;-145.67;100.00;66521.78;4995322;28;20037;-71
2021/12/31 03:29:31;;;;;;;33.25;6.13;;;;;;;-145.67;100.00;66521.78;4995139;28;20033;-71
2021/12/31 03:31:57;;;;;;;29.40;6.78;;;;;;;-145.67;100.00;66521.78;4994910;28;20026;-71
2021/12/31 03:34:25;;;;;;;27.90;6.03;;;;;;;-145.67;100.00;66521.78;5010107;28;20049;-71
2021/12/31 03:36:55;;;;;;;19.42;5.70;;;;;;;-145.67;100.00;66521.78;4995163;28;20517;-72
2021/12/31 03:39:21;;;;;;;24.33;4.82;;;;;;;-145.67;100.00;66521.78;5001020;28;20398;-72
2021/12/31 03:41:48;;;;;;;25.67;5.18;;;;;;;-145.67;100.00;66521.78;5004497;28;20056;-73
2021/12/31 03:44:14;;;;;;;22.58;5.60;;;;;;;-145.67;100.00;66521.78;4992572;28;20117;-72
2021/12/31 03:46:39;;;;;;;23.65;5.03;;;;;;;-145.67;100.00;66521.78;4995364;28;20089;-72
2021/12/31 03:49:05;;;;;;;27.40;5.97;;;;;;;-145.67;100.00;66521.78;4994313;28;20468;-72
2021/12/31 03:51:30;;;;;;;25.80;5.57;;;;;;;-145.67;100.00;66521.78;4995480;28;20026;-72
2021/12/31 03:53:56;;;;;;;29.67;6.82;;;;;;;-145.67;100.00;66521.78;4994372;28;20041;-71
2021/12/31 03:56:23;;;;;;;36.33;6.65;;;;;;;-145.67;100.00;66521.78;4994535;28;20521;-72
2021/12/31 03:58:51;;;;;;;37.03;5.72;;;;;;;-145.67;100.00;66521.78;4999814;28;20041;-72
2021/12/31 04:01:18;;;;;;;30.13;5.57;;;;;;;-145.67;100.00;66521.78;4994905;28;20091;-72
2021/12/31 04:03:44;;;;;;;26.27;5.30;;;;;;;-145.67;100.00;66521.78;4991933;28;20444;-72
2021/12/31 04:06:10;;;;;;;23.00;5.18;;;;;;;-145.67;100.00;66521.78;5000518;28;20175;-70
2021/12/31 04:08:35;;;;;;;32.60;5.07;;;;;;;-145.67;100.00;66521.78;4992954;28;20030;-72
2021/12/31 04:11:01;;;;;;;27.00;5.40;;;;;;;-145.67;100.00;66521.78;4993971;28;20038;-71
2021/12/31 04:13:26;;;;;;;19.45;4.80;;;;;;;-145.67;100.00;66521.78;4995123;28;20045;-71
2021/12/31 04:15:51;;;;;;;29.55;5.50;;;;;;;-145.67;100.00;66521.78;5000107;28;20038;-71
2021/12/31 04:18:17;;;;;;;22.48;5.13;;;;;;;-145.67;100.00;66521.78;4998369;28;20067;-70
2021/12/31 04:20:45;;;;;;;19.70;4.68;;;;;;;-145.67;100.00;66521.78;4994142;28;20450;-71
2021/12/31 04:23:26;;;;;;;24.70;4.75;;;;;;;-145.67;100.00;66521.78;5000168;28;20504;-71
2021/12/31 04:25:52;;;;;;;16.77;4.30;;;;;;;-145.67;100.00;66521.78;4992560;28;20652;-71
2021/12/31 04:28:17;;;;;;;20.60;4.25;;;;;;;-145.67;100.00;66521.78;4994055;28;20036;-71
2021/12/31 04:30:43;;;;;;;19.17;4.20;;;;;;;-145.67;100.00;66521.78;4994414;28;20033;-72
2021/12/31 04:33:08;;;;;;;20.25;4.32;;;;;;;-145.67;100.00;66521.78;4993446;28;20152;-71
2021/12/31 04:35:34;;;;;;;16.90;4.28;;;;;;;-145.67;100.00;66521.78;5000905;28;20060;-71
2021/12/31 04:38:02;;;;;;;17.38;3.72;;;;;;;-145.67;100.00;66521.78;4994061;28;20083;-71
2021/12/31 04:40:27;;;;;;;17.35;4.10;;;;;;;-145.67;100.00;66521.78;4993501;28;20471;-71
2021/12/31 04:42:55;;;;;;;23.45;4.95;;;;;;;-145.67;100.00;66521.78;4994146;28;20037;-71
2021/12/31 04:45:21;;;;;;;19.80;4.20;;;;;;;-145.67;100.00;66521.78;5004242;28;20033;-71
2021/12/31 04:47:46;;;;;;;17.65;4.43;;;;;;;-145.67;100.00;66521.78;4993138;28;20756;-70
2021/12/31 04:50:12;;;;;;;21.40;4.40;;;;;;;-145.67;100.00;66521.78;4997913;28;20030;-71
2021/12/31 04:52:38;;;;;;;23.90;4.32;;;;;;;-145.67;100.00;66521.78;5003790;28;20044;-71
2021/12/31 04:55:08;;;;;;;16.50;4.10;;;;;;;-145.67;100.00;66521.78;4980658;28;20038;-71
2021/12/31 04:57:33;;;;;;;20.77;4.90;;;;;;;-145.67;100.00;66521.78;4993017;28;20037;-71
2021/12/31 05:00:01;;;;;;;17.85;4.60;;;;;;;-145.67;100.00;66521.78;4999390;28;20040;-71
2021/12/31 05:02:26;;;;;;;21.38;4.88;;;;;;;-145.67;100.00;66521.78;4994149;28;20128;-71
2021/12/31 05:04:52;;;;;;;20.90;4.28;;;;;;;-145.67;100.00;66521.78;4992145;28;20037;-71
2021/12/31 05:07:18;;;;;;;20.33;4.68;;;;;;;-145.67;100.00;66521.78;4993798;28;20041;-70
2021/12/31 05:09:43;;;;;;;19.80;4.20;;;;;;;-145.67;100.00;66521.78;4993092;28;20037;-72
2021/12/31 05:12:15;;;;;;;18.50;4.32;;;;;;;-145.67;100.00;66521.78;4993816;28;20123;-71
2021/12/31 05:14:42;;;;;;;18.85;4.20;;;;;;;-145.67;100.00;66521.78;5008712;28;20787;-72
2021/12/31 05:17:07;;;;;;;23.67;4.47;;;;;;;-145.67;100.00;66521.78;4998468;28;20308;-71
2021/12/31 05:19:33;;;;;;;14.98;3.53;;;;;;;-145.67;100.00;66521.78;4993571;28;20037;-71
2021/12/31 05:21:58;;;;;;;22.13;4.30;;;;;;;-145.67;100.00;66521.78;4999757;28;20251;-71
2021/12/31 05:24:24;;;;;;;19.77;4.30;;;;;;;-145.67;100.00;66521.78;4993629;28;20030;-71
2021/12/31 05:26:49;;;;;;;25.00;5.10;;;;;;;-145.67;100.00;66521.78;4994136;28;21851;-70
2021/12/31 05:29:15;;;;;;;25.23;4.95;;;;;;;-145.67;100.00;66521.78;4994459;28;20044;-71
2021/12/31 05:31:40;;;;;;;20.25;4.88;;;;;;;-145.67;100.00;66521.78;4993634;28;20586;-71
2021/12/31 05:34:06;;;;;;;23.58;4.30;;;;;;;-145.67;100.00;66521.78;4993380;28;20135;-71
2021/12/31 05:36:32;;;;;;;25.10;4.75;;;;;;;-145.67;100.00;66521.78;4993193;28;20288;-71
2021/12/31 05:39:01;;;;;;;32.60;5.20;;;;;;;-145.67;100.00;66521.78;4993356;28;20037;-71
2021/12/31 05:41:28;;;;;;;26.40;5.38;;;;;;;-145.67;100.00;66521.78;4988097;28;20034;-70
2021/12/31 05:43:54;;;;;;;24.00;5.07;;;;;;;-145.67;100.00;66521.78;4995222;28;20466;-71
2021/12/31 05:46:20;;;;;;;21.95;4.18;;;;;;;-145.67;100.00;66521.78;4993517;28;20044;-71
2021/12/31 05:48:45;;;;;;;30.05;4.80;;;;;;;-145.67;100.00;66521.78;4997389;28;21879;-71
2021/12/31 05:51:10;;;;;;;25.23;4.45;;;;;;;-145.67;100.00;66521.78;4998503;28;20037;-71
2021/12/31 05:53:36;;;;;;;21.90;5.18;;;;;;;-145.67;100.00;66521.78;4993093;28;20026;-71
2021/12/31 05:56:02;;;;;;;24.88;5.25;;;;;;;-145.67;100.00;66521.78;4993529;28;20038;-70
2021/12/31 05:58:27;;;;;;;20.38;4.82;;;;;;;-145.67;100.00;66521.78;4993182;28;20514;-71
2021/12/31 06:00:53;;;;;;;21.17;4.80;;;;;;;-145.67;100.00;66521.78;4993316;28;20126;-71
2021/12/31 06:03:18;;;;;;;20.65;5.13;;;;;;;-145.67;100.00;66521.78;4992921;28;20025;-71
2021/12/31 06:05:47;;;;;;;25.63;4.85;;;;;;;-145.67;100.00;66521.78;4992426;28;20077;-71
2021/12/31 06:08:12;;;;;;;24.75;4.88;;;;;;;-145.67;100.00;66521.78;4996449;28;20044;-71
2021/12/31 06:10:41;;;;;;;24.83;5.05;;;;;;;-145.67;100.00;66521.78;5003033;28;20501;-71
2021/12/31 06:13:06;;;;;;;21.95;4.97;;;;;;;-145.67;100.00;66521.78;4996541;28;20083;-71
2021/12/31 06:15:36;;;;;;;23.65;5.03;;;;;;;-145.67;100.00;66521.78;5011339;28;20414;-71
2021/12/31 06:18:02;;;;;;;18.48;4.57;;;;;;;-145.67;100.00;66521.78;4996095;28;20029;-72
2021/12/31 06:20:30;;;;;;;24.45;4.43;;;;;;;-145.67;100.00;66521.78;4996871;28;20541;-71
2021/12/31 06:22:59;;;;;;;24.15;5.15;;;;;;;-145.67;100.00;66521.78;4996468;28;20619;-71
2021/12/31 06:25:25;;;;;;;27.08;5.13;;;;;;;-145.67;100.00;66521.78;4996499;28;20501;-71
2021/12/31 06:27:53;;;;;;;21.10;4.45;;;;;;;-145.67;100.00;66521.78;4995318;28;20076;-71
2021/12/31 06:30:23;;;;;;;17.58;4.65;;;;;;;-145.67;100.00;66521.78;4996080;28;20540;-71
2021/12/31 06:32:49;;;;;;;22.20;4.55;;;;;;;-145.67;100.00;66521.78;4995372;28;20030;-71
2021/12/31 06:35:14;;;;;;;22.10;4.20;;;;;;;-145.67;100.00;66521.78;5001595;28;20107;-71
2021/12/31 06:37:40;;;;;;;20.35;4.47;;;;;;;-145.67;100.00;66521.78;4996621;28;20041;-71
2021/12/31 06:40:07;;;;;;;21.35;4.68;;;;;;;-145.67;100.00;66521.78;4996150;28;20261;-71
2021/12/31 06:42:34;;;;;;;21.77;4.03;;;;;;;-145.67;100.00;66521.78;5001767;28;20069;-71
2021/12/31 06:45:02;;;;;;;18.40;3.90;;;;;;;-145.67;100.00;66521.78;4996405;28;20037;-71
2021/12/31 06:47:30;;;;;;;13.45;3.95;;;;;;;-145.67;100.00;66521.78;5010795;28;20437;-71
2021/12/31 06:49:55;;;;;;;23.27;4.07;;;;;;;-145.67;100.00;66521.78;4995798;28;20041;-71
2021/12/31 06:52:21;;;;;;;20.20;3.90;;;;;;;-145.67;100.00;66521.78;4994334;28;20642;-69
2021/12/31 06:54:47;;;;;;;15.45;3.97;;;;;;;-145.67;100.00;66521.78;4995702;28;20083;-69
2021/12/31 06:57:12;;;;;;;20.75;4.40;;;;;;;-145.67;100.00;66521.78;4995622;28;20176;-71
2021/12/31 06:59:38;;;;;;;23.15;4.10;;;;;;;-145.67;100.00;66521.78;4996100;28;20030;-71
2021/12/31 07:02:06;;;;;;;19.88;4.15;;;;;;;-145.67;100.00;66521.78;4996149;28;20045;-72
2021/12/31 07:04:32;;;;;;;18.48;4.30;;;;;;;-145.67;100.00;66521.78;4995920;28;20505;-71
2021/12/31 07:06:57;;;;;;;15.85;3.75;;;;;;;-145.67;100.00;66521.78;4996197;28;20133;-71
2021/12/31 07:09:23;;;;;;;17.35;4.18;;;;;;;-145.67;100.00;66521.78;4995259;28;20052;-71
2021/12/31 07:11:50;;;;;;;19.52;4.25;;;;;;;-145.67;100.00;66521.78;4996046;28;20041;-71
2021/12/31 07:14:16;;;;;;;28.00;4.53;;;;;;;-145.67;100.00;66521.78;4996119;28;20033;-71
2021/12/31 07:16:41;;;;;;;24.45;4.65;;;;;;;-145.67;100.00;66521.78;4996173;28;20037;-70
2021/12/31 07:19:09;;;;;;;23.40;5.03;;;;;;;-145.67;100.00;66521.78;4994747;28;20033;-71
2021/12/31 07:21:35;;;;;;;20.20;3.70;;;;;;;-145.67;100.00;66521.78;4995944;28;20163;-71
2021/12/31 07:24:01;;;;;;;21.08;4.18;;;;;;;-145.67;100.00;66521.78;4995454;28;20215;-70
2021/12/31 07:26:29;;;;;;;23.92;4.10;;;;;;;-145.67;100.00;66521.78;4996190;28;20034;-71
2021/12/31 07:28:56;;;;;;;22.65;4.85;;;;;;;-145.67;100.00;66521.78;4994135;28;20590;-70
2021/12/31 07:31:22;;;;;;;18.70;4.22;;;;;;;-145.67;100.00;66521.78;4993870;28;20038;-71
2021/12/31 07:33:47;;;;;;;20.55;3.78;;;;;;;-145.67;100.00;66521.78;4994741;28;20033;-70
2021/12/31 07:36:17;;;;;;;21.92;4.32;;;;;;;-145.67;100.00;66521.78;4995416;28;20042;-70
2021/12/31 07:38:49;;;;;;;21.98;4.53;;;;;;;-145.67;100.00;66521.78;4995694;28;20493;-71
2021/12/31 07:41:14;;;;;;;23.70;4.30;;;;;;;-145.67;100.00;66521.78;4995072;28;20532;-71
2021/12/31 07:43:40;;;;;;;20.25;4.28;;;;;;;-145.67;100.00;66521.78;4995431;28;20048;-73
2021/12/31 07:46:05;;;;;;;18.08;4.22;;;;;;;-145.67;100.00;66521.78;4993989;28;20173;-71
2021/12/31 07:48:31;;;;;;;19.55;4.35;;;;;;;-145.67;100.00;66521.78;4995495;28;20087;-69
2021/12/31 07:50:56;;;;;;;23.55;4.65;;;;;;;-145.67;100.00;66521.78;4995527;28;20075;-72
2021/12/31 07:53:22;;;;;;;19.90;4.22;;;;;;;-145.67;100.00;66521.78;5004646;28;20029;-72
2021/12/31 07:55:47;;;;;;;22.00;4.57;;;;;;;-145.67;100.00;66521.78;4994689;28;20542;-71
2021/12/31 07:58:15;;;;;;;22.10;4.47;;;;;;;-145.67;100.00;66521.78;4994997;28;20030;-71
2021/12/31 08:00:41;;;;;;;24.85;5.00;;;;;;;-145.67;100.00;66521.78;5009936;28;20056;-70
2021/12/31 08:03:09;;;;;;;21.27;4.78;;;;;;;-145.67;100.00;66521.78;4998592;28;20049;-70
2021/12/31 08:05:35;;;;;;;22.67;5.55;;;;;;;-145.67;100.00;66521.78;4995039;28;20033;-69
2021/12/31 08:08:04;;;;;;;23.65;4.55;;;;;;;-145.67;100.00;66521.78;4994163;28;20304;-70
2021/12/31 08:10:32;;;;;;;26.92;5.45;;;;;;;-145.67;100.00;66521.78;4994544;28;20497;-70
2021/12/31 08:13:00;;;;;;;25.15;5.03;;;;;;;-145.67;100.00;66521.78;5008781;28;20037;-70
2021/12/31 08:15:25;;;;;;;24.23;4.78;;;;;;;-145.67;100.00;66521.78;5001143;28;20057;-70
2021/12/31 08:17:53;;;;;;;22.77;4.60;;;;;;;-145.67;100.00;66521.78;4994627;28;20033;-71
2021/12/31 08:20:20;;;;;;;26.73;5.13;;;;;;;-145.67;100.00;66521.78;4992243;28;20084;-69
2021/12/31 08:22:45;;;;;;;21.77;5.18;;;;;;;-145.67;100.00;66521.78;4995146;28;20088;-69
2021/12/31 08:25:11;;;;;;;21.85;4.85;;;;;;;-145.67;100.00;66521.78;4993710;28;20034;-69
2021/12/31 08:27:39;;;;;;;26.60;6.00;;;;;;;-145.67;100.00;66521.78;4998468;28;20037;-71
2021/12/31 08:30:07;;;;;;;22.35;4.10;;;;;;;-145.67;100.00;66521.78;4999878;28;20055;-71
2021/12/31 08:32:33;;;;;;;23.17;4.43;;;;;;;-145.67;100.00;66521.78;4999883;28;20061;-69
2021/12/31 08:34:59;;;;;;;22.00;4.68;;;;;;;-145.67;100.00;66521.78;5008644;28;20148;-71
2021/12/31 08:37:24;;;;;;;19.02;4.25;;;;;;;-145.67;100.00;66521.78;4994277;28;20131;-71
2021/12/31 08:39:50;;;;;;;25.70;4.63;;;;;;;-145.67;100.00;66521.78;4994176;28;20691;-71
2021/12/31 08:42:17;;;;;;;25.73;5.25;;;;;;;-145.67;100.00;66521.78;4994133;28;20108;-71
2021/12/31 08:44:43;;;;;;;20.77;4.57;;;;;;;-145.67;100.00;66521.78;4994811;28;20066;-70
2021/12/31 08:47:11;;;;;;;15.77;4.07;;;;;;;-145.67;100.00;66521.78;4998792;28;20042;-70
2021/12/31 08:49:36;;;;;;;18.35;4.50;;;;;;;-145.67;100.00;66521.78;4994209;28;20050;-72
2021/12/31 08:52:02;;;;;;;19.80;4.18;;;;;;;-145.67;100.00;66521.78;5003194;28;20037;-69
2021/12/31 08:54:31;;;;;;;21.48;4.70;;;;;;;-145.67;100.00;66521.78;5000868;28;20044;-71
2021/12/31 08:56:57;;;;;;;20.50;4.55;;;;;;;-145.67;100.00;66521.78;4993390;28;20040;-72
2021/12/31 08:59:23;;;;;;;22.48;4.20;;;;;;;-145.67;100.00;66521.78;5000557;28;20038;-72
2021/12/31 09:01:48;;;;;;;20.63;4.40;;;;;;;-145.67;100.00;66521.78;4999976;28;22125;-72
2021/12/31 09:04:16;;;;;;;22.42;4.75;;;;;;;-145.67;100.00;66521.78;5008681;28;20092;-71
2021/12/31 09:06:42;;;;;;;20.58;4.38;;;;;;;-145.67;100.00;66521.78;4993624;28;20061;-72
2021/12/31 09:09:10;;;;;;;20.73;4.53;;;;;;;-145.67;100.00;66521.78;4994229;28;20138;-72
2021/12/31 09:11:36;;;;;;;20.08;4.60;;;;;;;-145.67;100.00;66521.78;4992037;28;20596;-72
2021/12/31 09:14:05;;;;;;;21.20;4.50;;;;;;;-145.67;100.00;66521.78;4994150;28;20141;-72
2021/12/31 09:16:31;;;;;;;20.25;4.63;;;;;;;-145.67;100.00;66521.78;4994037;28;20046;-72
2021/12/31 09:18:56;;;;;;;20.55;4.57;;;;;;;-145.67;100.00;66521.78;4994496;28;20041;-71
2021/12/31 09:21:22;;;;;;;17.35;4.40;;;;;;;-145.67;100.00;66521.78;4994543;28;20034;-71
2021/12/31 09:23:53;;;;;;;22.58;4.57;;;;;;;-145.67;100.00;66521.78;4998663;28;20077;-71
2021/12/31 09:26:18;;;;;;;22.42;5.45;;;;;;;-145.67;100.00;66521.78;4994339;28;20103;-74
2021/12/31 09:28:46;;;;;;;28.58;5.88;;;;;;;-145.67;100.00;66521.78;4993688;28;20038;-72
2021/12/31 09:31:16;;;;;;;28.67;5.50;;;;;;;-145.67;100.00;66521.78;4992096;28;20029;-72
2021/12/31 09:33:42;;;;;;;30.70;5.32;;;;;;;-145.67;100.00;66521.78;4992924;28;20026;-71
2021/12/31 09:36:07;;;;;;;24.60;5.20;;;;;;;-145.67;100.00;66521.78;4992920;28;20124;-71
2021/12/31 09:38:36;;;;;;;24.23;5.00;;;;;;;-145.67;100.00;66521.78;4998825;28;20073;-71
2021/12/31 09:41:04;;;;;;;21.92;5.30;;;;;;;-145.67;100.00;66521.78;4994012;28;20034;-71
2021/12/31 09:43:34;;;;;;;35.15;5.85;;;;;;;-145.67;100.00;66521.78;4997738;28;20060;-71
2021/12/31 09:46:00;;;;;;;31.20;5.30;;;;;;;-145.67;100.00;66521.78;4997325;28;20203;-71
2021/12/31 09:48:27;;;;;;;27.42;5.60;;;;;;;-145.67;100.00;66521.78;5003203;28;20033;-71
2021/12/31 09:50:55;;;;;;;31.40;5.93;;;;;;;-145.67;100.00;66521.78;4997009;28;20304;-71
2021/12/31 09:53:21;;;;;;;31.33;5.55;;;;;;;-145.67;100.00;66521.78;4984891;28;21082;-71
2021/12/31 09:55:54;;;;;;;29.65;6.28;;;;;;;-145.67;100.00;66521.78;4992286;28;20113;-71
2021/12/31 09:58:26;;;;;;;33.67;5.40;;;;;;;-145.67;100.00;66521.78;4997091;28;20065;-71
2021/12/31 10:00:55;;;;;;;30.35;5.88;;;;;;;-145.67;100.00;66521.78;4996399;28;20034;-71
2021/12/31 10:03:25;;;;;;;33.35;5.80;;;;;;;-145.67;100.00;66521.78;5011000;28;20056;-70
2021/12/31 10:06:11;;;;;;;26.77;5.72;;;;;;;-145.67;100.00;66521.78;5003370;28;20025;-71
2021/12/31 10:08:43;;;;;;;30.48;5.35;;;;;;;-145.67;100.00;66521.78;4995837;28;20055;-71
2021/12/31 10:11:14;;;;;;;28.08;5.85;;;;;;;-145.67;100.00;66521.78;5002811;28;20029;-71
2021/12/31 10:13:41;;;;;;;33.55;6.20;;;;;;;-145.67;100.00;66521.78;4990240;28;20036;-71
2021/12/31 10:16:39;;;;;;;26.27;5.35;;;;;;;-145.67;100.00;66521.78;5011553;28;20785;-71
2021/12/31 10:19:15;;;;;;;24.63;4.50;;;;;;;-145.67;100.00;66521.78;5011158;28;20060;-71
2021/12/31 10:21:46;;;;;;;25.33;4.65;;;;;;;-145.67;100.00;66521.78;5002533;28;22285;-70
2021/12/31 10:24:35;;;;;;;24.73;5.00;;;;;;;-145.67;100.00;66521.78;4996372;28;20026;-70
2021/12/31 10:27:19;;;;;;;25.63;4.30;;;;;;;-145.67;100.00;66521.78;4996714;28;20125;-71
2021/12/31 10:29:50;;;;;;;20.85;4.45;;;;;;;-145.67;100.00;66521.78;4995838;28;20148;-70
2021/12/31 10:32:16;;;;;;;20.25;4.28;;;;;;;-145.67;100.00;66521.78;4991331;28;20045;-71
2021/12/31 10:34:44;;;;;;;24.52;6.00;;;;;;;-145.67;100.00;66521.78;4995680;28;20053;-70
2021/12/31 10:37:25;;;;;;;25.77;5.25;;;;;;;-145.67;100.00;66521.78;4996352;28;20129;-71
2021/12/31 10:40:00;;;;;;;28.45;5.78;;;;;;;-145.67;100.00;66521.78;4996403;28;20288;-71
2021/12/31 10:42:31;;;;;;;33.10;5.18;;;;;;;-145.67;100.00;66521.78;4996039;28;20481;-69
2021/12/31 10:44:57;;;;;;;27.65;5.93;;;;;;;-145.67;100.00;66521.78;5011111;28;20026;-70
2021/12/31 10:47:38;;;;;;;30.25;5.80;;;;;;;-145.67;100.00;66521.78;5011083;28;20060;-70
2021/12/31 10:50:04;;;;;;;34.30;6.40;;;;;;;-145.67;100.00;66521.78;4999256;28;20049;-70
2021/12/31 10:52:43;;;;;;;29.23;5.95;;;;;;;-145.67;100.00;66521.78;5001493;28;20037;-69
2021/12/31 10:55:24;;;;;;;38.72;6.72;;;;;;;-145.67;100.00;66521.78;4995997;28;20074;-71
2021/12/31 10:57:57;;;;;;;39.00;6.43;;;;;;;-145.67;100.00;66521.78;4999714;28;20550;-69
2021/12/31 11:00:27;;;;;;;37.38;6.57;;;;;;;-145.67;100.00;66521.78;5001135;28;20038;-71
2021/12/31 11:02:53;;;;;;;33.55;7.03;;;;;;;-145.67;100.00;66521.78;4994364;28;20030;-71
2021/12/31 11:05:22;;;;;;;36.85;6.22;;;;;;;-145.67;100.00;66521.78;4993691;28;20046;-69
2021/12/31 11:07:51;;;;;;;37.58;7.30;;;;;;;-145.67;100.00;66521.78;5010865;28;20057;-70